Pagrindinis puslapis
METAR-TAF:

METAR-TAF

Oro uostai :

Puvirnituq, Kvebekas, Kanada

platuma: 60-03N, ilguma: 077-17W, Aukštis: 23 m

Dabartinis oras

Ataskaita buvo paskelbta 34 minutes, ne 14:00 UTC
Vėjas 5 kt iš Vakarų
Temperatūra -35°C
Drėgmė 66%
Slėgis 1008 hPa
Matomumas: 14.5 km
Mažai debesys ne aukštis 25000 ft

METAR: CYPX 191400Z AUTO 28005KT 9SM FEW250 M35/M39 A2978 RMK SLP089

Laikas: 09:34 (14:34 UTC)

Prognozė

Ataskaita buvo paskelbta 2 valandos ir 56 minutes, ne 11:38 UTC
Prognozė galioja nuo 19 metu 12 UTC su 19 metu 24 UTC
Vėjas 8 kt iš Šiaurės Vakarų
Matomumas: 10 km
Giedras dangus
Laikinai
nuo 19 metu 12 UTC su 19 metu 24 UTC
Matomumas: 8.0 km
ledo kristalai
Tapsmas
nuo 19 metu 12 UTC su 19 metu 14 UTC
Vėjas 12 kt iš Vakarų/Šiaurės Vakarų

TAF: CYPX 191138Z 1912/1924 32008KT P6SM SKC TEMPO 1912/1924 5SM IC BECMG 1912/1914 30012KT RMK FCST BASED ON AUTO OBS. NXT FCST BY 191800Z

Orai ataskaitas ir orų prognozės (METAR, TAF).

turimą stotys yra geltonos ir raudonos taškus žemėlapyje.

Perkelti pele per norėdami pamatyti stoties vardą.

Tada spustelėkite, norėdami matyti oro stebėjimo ir prognozės.

Norėdami pakeisti žemėlapį: spustelėkite ant žalios mygtukų su juodo kryžiaus žemyn,; žalią mygtuką su brūkšneliu, jei norite nutolinti; arba žalių rodyklių gretimoms žemėlapius.


METAR-TAF: